sensor_id;sensor_type;location;lat;lon;timestamp;temperature;humidity
75091;DHT22;63674;48.048;8.306;2023-05-19T00:01:15;8.10;99.90
75091;DHT22;63674;48.048;8.306;2023-05-19T00:03:52;8.10;99.90
75091;DHT22;63674;48.048;8.306;2023-05-19T00:06:26;8.00;99.90
75091;DHT22;63674;48.048;8.306;2023-05-19T00:08:59;8.00;99.90
75091;DHT22;63674;48.048;8.306;2023-05-19T00:11:28;8.00;99.90
75091;DHT22;63674;48.048;8.306;2023-05-19T00:13:58;8.00;99.90
75091;DHT22;63674;48.048;8.306;2023-05-19T00:16:28;8.00;99.90
75091;DHT22;63674;48.048;8.306;2023-05-19T00:18:58;8.00;99.90
75091;DHT22;63674;48.048;8.306;2023-05-19T00:21:28;8.00;99.90
75091;DHT22;63674;48.048;8.306;2023-05-19T00:23:58;8.00;99.90
75091;DHT22;63674;48.048;8.306;2023-05-19T00:26:27;8.00;99.90
75091;DHT22;63674;48.048;8.306;2023-05-19T00:28:56;8.00;99.90
75091;DHT22;63674;48.048;8.306;2023-05-19T00:31:25;8.00;99.90
75091;DHT22;63674;48.048;8.306;2023-05-19T00:33:53;8.00;99.90
75091;DHT22;63674;48.048;8.306;2023-05-19T00:36:23;8.00;99.90
75091;DHT22;63674;48.048;8.306;2023-05-19T00:38:53;8.00;99.90
75091;DHT22;63674;48.048;8.306;2023-05-19T00:41:21;8.00;99.90
75091;DHT22;63674;48.048;8.306;2023-05-19T00:43:50;8.00;99.90
75091;DHT22;63674;48.048;8.306;2023-05-19T00:46:19;8.00;99.90
75091;DHT22;63674;48.048;8.306;2023-05-19T00:48:49;7.90;99.90
75091;DHT22;63674;48.048;8.306;2023-05-19T00:51:17;7.90;99.90
75091;DHT22;63674;48.048;8.306;2023-05-19T00:53:47;7.90;99.90
75091;DHT22;63674;48.048;8.306;2023-05-19T00:56:19;7.90;99.90
75091;DHT22;63674;48.048;8.306;2023-05-19T00:58:50;7.80;99.90
75091;DHT22;63674;48.048;8.306;2023-05-19T01:01:19;7.70;99.90
75091;DHT22;63674;48.048;8.306;2023-05-19T01:03:48;7.70;99.90
75091;DHT22;63674;48.048;8.306;2023-05-19T01:06:17;7.70;99.90
75091;DHT22;63674;48.048;8.306;2023-05-19T01:08:46;7.70;99.90
75091;DHT22;63674;48.048;8.306;2023-05-19T01:11:15;7.70;99.90
75091;DHT22;63674;48.048;8.306;2023-05-19T01:13:45;7.70;99.90
75091;DHT22;63674;48.048;8.306;2023-05-19T01:16:19;7.70;99.90
75091;DHT22;63674;48.048;8.306;2023-05-19T01:18:57;7.80;99.90
75091;DHT22;63674;48.048;8.306;2023-05-19T01:21:55;7.70;99.90
75091;DHT22;63674;48.048;8.306;2023-05-19T01:27:53;7.60;99.90
75091;DHT22;63674;48.048;8.306;2023-05-19T01:30:42;7.60;99.90
75091;DHT22;63674;48.048;8.306;2023-05-19T01:33:13;7.50;99.90
75091;DHT22;63674;48.048;8.306;2023-05-19T01:35:42;7.50;99.90
75091;DHT22;63674;48.048;8.306;2023-05-19T01:38:12;7.50;99.90
75091;DHT22;63674;48.048;8.306;2023-05-19T01:40:44;7.40;99.90
75091;DHT22;63674;48.048;8.306;2023-05-19T01:43:17;7.50;99.90
75091;DHT22;63674;48.048;8.306;2023-05-19T01:45:50;7.50;99.90
75091;DHT22;63674;48.048;8.306;2023-05-19T01:48:19;7.50;99.90
75091;DHT22;63674;48.048;8.306;2023-05-19T01:50:48;7.50;99.90
75091;DHT22;63674;48.048;8.306;2023-05-19T01:53:17;7.50;99.90
75091;DHT22;63674;48.048;8.306;2023-05-19T01:55:48;7.30;99.90
75091;DHT22;63674;48.048;8.306;2023-05-19T01:58:22;7.20;99.90
75091;DHT22;63674;48.048;8.306;2023-05-19T02:01:02;7.10;99.90
75091;DHT22;63674;48.048;8.306;2023-05-19T02:03:51;7.10;99.90
75091;DHT22;63674;48.048;8.306;2023-05-19T02:06:36;7.00;99.90
75091;DHT22;63674;48.048;8.306;2023-05-19T02:09:12;6.90;99.90
75091;DHT22;63674;48.048;8.306;2023-05-19T02:11:46;6.80;99.90
75091;DHT22;63674;48.048;8.306;2023-05-19T02:14:24;6.70;99.90
75091;DHT22;63674;48.048;8.306;2023-05-19T02:16:59;6.70;99.90
75091;DHT22;63674;48.048;8.306;2023-05-19T02:19:31;6.60;99.90
75091;DHT22;63674;48.048;8.306;2023-05-19T02:22:00;6.60;99.90
75091;DHT22;63674;48.048;8.306;2023-05-19T02:24:29;6.60;99.90
75091;DHT22;63674;48.048;8.306;2023-05-19T02:26:58;6.50;99.90
75091;DHT22;63674;48.048;8.306;2023-05-19T02:29:27;6.50;99.90
75091;DHT22;63674;48.048;8.306;2023-05-19T02:31:55;6.50;99.90
75091;DHT22;63674;48.048;8.306;2023-05-19T02:34:25;6.50;99.90
75091;DHT22;63674;48.048;8.306;2023-05-19T02:36:54;6.60;99.90
75091;DHT22;63674;48.048;8.306;2023-05-19T02:39:23;6.60;99.90
75091;DHT22;63674;48.048;8.306;2023-05-19T02:41:52;6.60;99.90
75091;DHT22;63674;48.048;8.306;2023-05-19T02:44:20;6.60;99.90
75091;DHT22;63674;48.048;8.306;2023-05-19T02:46:49;6.60;99.90
75091;DHT22;63674;48.048;8.306;2023-05-19T02:49:18;6.60;99.90
75091;DHT22;63674;48.048;8.306;2023-05-19T02:51:48;6.50;99.90
75091;DHT22;63674;48.048;8.306;2023-05-19T02:54:16;6.40;99.90
75091;DHT22;63674;48.048;8.306;2023-05-19T02:56:45;6.30;99.90
75091;DHT22;63674;48.048;8.306;2023-05-19T02:59:13;6.40;99.90
75091;DHT22;63674;48.048;8.306;2023-05-19T03:01:42;6.40;99.90
75091;DHT22;63674;48.048;8.306;2023-05-19T03:04:11;6.40;99.90
75091;DHT22;63674;48.048;8.306;2023-05-19T03:06:39;6.50;99.90
75091;DHT22;63674;48.048;8.306;2023-05-19T03:09:09;6.50;99.90
75091;DHT22;63674;48.048;8.306;2023-05-19T03:11:39;6.50;99.90
75091;DHT22;63674;48.048;8.306;2023-05-19T03:14:07;6.50;99.90
75091;DHT22;63674;48.048;8.306;2023-05-19T03:16:36;6.40;99.90
75091;DHT22;63674;48.048;8.306;2023-05-19T03:19:07;6.30;99.90
75091;DHT22;63674;48.048;8.306;2023-05-19T03:21:36;6.30;99.90
75091;DHT22;63674;48.048;8.306;2023-05-19T03:24:05;6.30;99.90
75091;DHT22;63674;48.048;8.306;2023-05-19T03:26:35;6.20;99.90
75091;DHT22;63674;48.048;8.306;2023-05-19T03:29:04;6.20;99.90
75091;DHT22;63674;48.048;8.306;2023-05-19T03:31:33;6.10;99.90
75091;DHT22;63674;48.048;8.306;2023-05-19T03:34:01;6.00;99.90
75091;DHT22;63674;48.048;8.306;2023-05-19T03:36:30;6.00;99.90
75091;DHT22;63674;48.048;8.306;2023-05-19T03:38:58;6.00;99.90
75091;DHT22;63674;48.048;8.306;2023-05-19T03:41:27;6.00;99.90
75091;DHT22;63674;48.048;8.306;2023-05-19T03:43:57;6.00;99.90
75091;DHT22;63674;48.048;8.306;2023-05-19T03:46:26;6.10;99.90
75091;DHT22;63674;48.048;8.306;2023-05-19T03:48:55;6.10;99.90
75091;DHT22;63674;48.048;8.306;2023-05-19T03:51:23;6.10;99.90
75091;DHT22;63674;48.048;8.306;2023-05-19T03:53:54;6.00;99.90
75091;DHT22;63674;48.048;8.306;2023-05-19T03:56:23;6.00;99.90
75091;DHT22;63674;48.048;8.306;2023-05-19T03:58:53;5.90;99.90
75091;DHT22;63674;48.048;8.306;2023-05-19T04:01:23;6.00;99.90
75091;DHT22;63674;48.048;8.306;2023-05-19T04:03:52;5.90;99.90
75091;DHT22;63674;48.048;8.306;2023-05-19T04:06:21;5.90;99.90
75091;DHT22;63674;48.048;8.306;2023-05-19T04:08:49;6.00;99.90
75091;DHT22;63674;48.048;8.306;2023-05-19T04:11:38;6.00;99.90
75091;DHT22;63674;48.048;8.306;2023-05-19T04:14:08;6.10;99.90
75091;DHT22;63674;48.048;8.306;2023-05-19T04:16:38;6.10;99.90
75091;DHT22;63674;48.048;8.306;2023-05-19T04:19:07;6.10;99.90
75091;DHT22;63674;48.048;8.306;2023-05-19T04:21:36;6.10;99.90
75091;DHT22;63674;48.048;8.306;2023-05-19T04:24:05;6.10;99.90
75091;DHT22;63674;48.048;8.306;2023-05-19T04:26:34;6.10;99.90
75091;DHT22;63674;48.048;8.306;2023-05-19T04:29:04;6.10;99.90
75091;DHT22;63674;48.048;8.306;2023-05-19T04:31:33;6.10;99.90
75091;DHT22;63674;48.048;8.306;2023-05-19T04:34:03;6.20;99.90
75091;DHT22;63674;48.048;8.306;2023-05-19T04:36:33;6.20;99.90
75091;DHT22;63674;48.048;8.306;2023-05-19T04:39:02;6.20;99.90
75091;DHT22;63674;48.048;8.306;2023-05-19T04:41:34;6.10;99.90
75091;DHT22;63674;48.048;8.306;2023-05-19T04:44:06;6.20;99.90
75091;DHT22;63674;48.048;8.306;2023-05-19T04:46:35;6.20;99.90
75091;DHT22;63674;48.048;8.306;2023-05-19T04:49:05;6.40;99.90
75091;DHT22;63674;48.048;8.306;2023-05-19T04:51:34;6.30;99.90
75091;DHT22;63674;48.048;8.306;2023-05-19T04:54:07;6.50;99.90
75091;DHT22;63674;48.048;8.306;2023-05-19T04:56:36;6.50;99.90
75091;DHT22;63674;48.048;8.306;2023-05-19T04:59:04;6.50;99.90
75091;DHT22;63674;48.048;8.306;2023-05-19T05:01:33;6.50;99.90
75091;DHT22;63674;48.048;8.306;2023-05-19T05:04:07;6.60;99.90
75091;DHT22;63674;48.048;8.306;2023-05-19T05:06:36;6.60;99.90
75091;DHT22;63674;48.048;8.306;2023-05-19T05:09:07;6.60;99.90
75091;DHT22;63674;48.048;8.306;2023-05-19T05:11:36;6.60;99.90
75091;DHT22;63674;48.048;8.306;2023-05-19T05:14:06;6.70;99.90
75091;DHT22;63674;48.048;8.306;2023-05-19T05:16:35;6.70;99.90
75091;DHT22;63674;48.048;8.306;2023-05-19T05:19:05;6.70;99.90
75091;DHT22;63674;48.048;8.306;2023-05-19T05:21:36;6.70;99.90
75091;DHT22;63674;48.048;8.306;2023-05-19T05:24:05;6.70;99.90
75091;DHT22;63674;48.048;8.306;2023-05-19T05:26:35;6.80;99.90
75091;DHT22;63674;48.048;8.306;2023-05-19T05:29:04;6.90;99.90
75091;DHT22;63674;48.048;8.306;2023-05-19T05:31:32;7.00;99.90
75091;DHT22;63674;48.048;8.306;2023-05-19T05:34:01;7.00;99.90
75091;DHT22;63674;48.048;8.306;2023-05-19T05:36:31;7.10;99.90
75091;DHT22;63674;48.048;8.306;2023-05-19T05:39:01;7.20;99.90
75091;DHT22;63674;48.048;8.306;2023-05-19T05:41:30;7.30;99.90
75091;DHT22;63674;48.048;8.306;2023-05-19T05:44:01;7.40;99.90
75091;DHT22;63674;48.048;8.306;2023-05-19T05:46:31;7.50;99.90
75091;DHT22;63674;48.048;8.306;2023-05-19T05:49:00;7.70;99.90
75091;DHT22;63674;48.048;8.306;2023-05-19T05:51:30;7.70;99.90
75091;DHT22;63674;48.048;8.306;2023-05-19T05:54:01;7.80;99.90
75091;DHT22;63674;48.048;8.306;2023-05-19T05:56:30;7.90;99.90
75091;DHT22;63674;48.048;8.306;2023-05-19T05:59:00;8.10;99.90
75091;DHT22;63674;48.048;8.306;2023-05-19T06:01:29;8.10;99.90
75091;DHT22;63674;48.048;8.306;2023-05-19T06:04:01;8.20;99.90
75091;DHT22;63674;48.048;8.306;2023-05-19T06:06:31;8.30;99.90
75091;DHT22;63674;48.048;8.306;2023-05-19T06:09:00;8.40;99.90
75091;DHT22;63674;48.048;8.306;2023-05-19T06:11:28;8.40;99.90
75091;DHT22;63674;48.048;8.306;2023-05-19T06:13:57;8.60;99.90
75091;DHT22;63674;48.048;8.306;2023-05-19T06:16:26;8.60;99.90
75091;DHT22;63674;48.048;8.306;2023-05-19T06:18:55;8.70;99.90
75091;DHT22;63674;48.048;8.306;2023-05-19T06:21:25;8.70;99.90
75091;DHT22;63674;48.048;8.306;2023-05-19T06:23:54;8.80;99.90
75091;DHT22;63674;48.048;8.306;2023-05-19T06:26:23;8.90;99.90
75091;DHT22;63674;48.048;8.306;2023-05-19T06:28:52;9.00;99.90
75091;DHT22;63674;48.048;8.306;2023-05-19T06:31:21;9.00;99.90
75091;DHT22;63674;48.048;8.306;2023-05-19T06:33:52;9.10;99.90
75091;DHT22;63674;48.048;8.306;2023-05-19T06:36:21;9.30;99.90
75091;DHT22;63674;48.048;8.306;2023-05-19T06:38:50;9.40;99.90
75091;DHT22;63674;48.048;8.306;2023-05-19T06:41:20;9.60;99.90
75091;DHT22;63674;48.048;8.306;2023-05-19T06:43:48;9.80;99.90
75091;DHT22;63674;48.048;8.306;2023-05-19T06:46:17;9.90;99.90
75091;DHT22;63674;48.048;8.306;2023-05-19T06:48:46;10.10;99.90
75091;DHT22;63674;48.048;8.306;2023-05-19T06:51:14;10.20;99.90
75091;DHT22;63674;48.048;8.306;2023-05-19T06:53:47;10.30;99.90
75091;DHT22;63674;48.048;8.306;2023-05-19T06:56:16;10.50;99.90
75091;DHT22;63674;48.048;8.306;2023-05-19T06:58:46;10.70;99.90
75091;DHT22;63674;48.048;8.306;2023-05-19T07:01:14;10.70;99.90
75091;DHT22;63674;48.048;8.306;2023-05-19T07:03:43;10.80;99.90
75091;DHT22;63674;48.048;8.306;2023-05-19T07:06:13;10.90;99.90
75091;DHT22;63674;48.048;8.306;2023-05-19T07:08:41;11.10;99.90
75091;DHT22;63674;48.048;8.306;2023-05-19T07:11:11;11.30;99.90
75091;DHT22;63674;48.048;8.306;2023-05-19T07:13:40;11.50;99.90
75091;DHT22;63674;48.048;8.306;2023-05-19T07:16:09;11.50;99.90
75091;DHT22;63674;48.048;8.306;2023-05-19T07:18:38;11.50;99.90
75091;DHT22;63674;48.048;8.306;2023-05-19T07:21:07;11.80;99.90
75091;DHT22;63674;48.048;8.306;2023-05-19T07:23:35;11.90;99.90
75091;DHT22;63674;48.048;8.306;2023-05-19T07:26:04;11.90;99.90
75091;DHT22;63674;48.048;8.306;2023-05-19T07:28:32;12.00;99.90
75091;DHT22;63674;48.048;8.306;2023-05-19T07:31:01;11.90;99.90
75091;DHT22;63674;48.048;8.306;2023-05-19T07:33:31;11.90;99.90
75091;DHT22;63674;48.048;8.306;2023-05-19T07:36:00;11.90;99.90
75091;DHT22;63674;48.048;8.306;2023-05-19T07:38:29;12.20;99.90
75091;DHT22;63674;48.048;8.306;2023-05-19T07:41:00;12.40;99.90
75091;DHT22;63674;48.048;8.306;2023-05-19T07:43:30;12.40;99.90
75091;DHT22;63674;48.048;8.306;2023-05-19T07:45:59;12.00;99.90
75091;DHT22;63674;48.048;8.306;2023-05-19T07:48:28;11.90;99.90
75091;DHT22;63674;48.048;8.306;2023-05-19T07:50:58;12.00;99.90
75091;DHT22;63674;48.048;8.306;2023-05-19T07:53:26;12.20;99.90
75091;DHT22;63674;48.048;8.306;2023-05-19T07:55:55;12.20;99.90
75091;DHT22;63674;48.048;8.306;2023-05-19T07:58:25;12.00;99.90
75091;DHT22;63674;48.048;8.306;2023-05-19T08:00:56;11.90;99.90
75091;DHT22;63674;48.048;8.306;2023-05-19T08:03:25;11.90;99.90
75091;DHT22;63674;48.048;8.306;2023-05-19T08:05:54;11.80;99.90
75091;DHT22;63674;48.048;8.306;2023-05-19T08:08:24;11.80;99.90
75091;DHT22;63674;48.048;8.306;2023-05-19T08:10:53;11.90;99.90
75091;DHT22;63674;48.048;8.306;2023-05-19T08:13:21;12.30;99.90
75091;DHT22;63674;48.048;8.306;2023-05-19T08:15:50;12.20;99.90
75091;DHT22;63674;48.048;8.306;2023-05-19T08:18:20;12.20;99.90
75091;DHT22;63674;48.048;8.306;2023-05-19T08:20:48;12.40;99.90
75091;DHT22;63674;48.048;8.306;2023-05-19T08:23:17;12.10;99.90
75091;DHT22;63674;48.048;8.306;2023-05-19T08:25:47;11.90;99.90
75091;DHT22;63674;48.048;8.306;2023-05-19T08:28:16;12.00;99.90
75091;DHT22;63674;48.048;8.306;2023-05-19T08:30:45;12.10;99.90
75091;DHT22;63674;48.048;8.306;2023-05-19T08:33:13;12.10;99.90
75091;DHT22;63674;48.048;8.306;2023-05-19T08:35:42;12.00;99.90
75091;DHT22;63674;48.048;8.306;2023-05-19T08:38:11;12.20;99.90
75091;DHT22;63674;48.048;8.306;2023-05-19T08:40:41;12.50;99.90
75091;DHT22;63674;48.048;8.306;2023-05-19T08:43:11;12.90;99.90
75091;DHT22;63674;48.048;8.306;2023-05-19T08:45:42;13.00;99.90
75091;DHT22;63674;48.048;8.306;2023-05-19T08:48:13;13.20;99.90
75091;DHT22;63674;48.048;8.306;2023-05-19T08:50:50;13.40;99.90
75091;DHT22;63674;48.048;8.306;2023-05-19T08:53:26;13.70;99.90
75091;DHT22;63674;48.048;8.306;2023-05-19T08:56:03;13.50;99.90
75091;DHT22;63674;48.048;8.306;2023-05-19T08:58:39;13.70;99.90
75091;DHT22;63674;48.048;8.306;2023-05-19T09:01:13;14.50;99.90
75091;DHT22;63674;48.048;8.306;2023-05-19T09:03:44;14.80;99.10
75091;DHT22;63674;48.048;8.306;2023-05-19T09:06:16;14.40;95.10
75091;DHT22;63674;48.048;8.306;2023-05-19T09:08:45;14.30;94.80
75091;DHT22;63674;48.048;8.306;2023-05-19T09:11:14;13.80;90.30
75091;DHT22;63674;48.048;8.306;2023-05-19T09:13:44;13.60;91.10
75091;DHT22;63674;48.048;8.306;2023-05-19T09:16:12;13.30;91.00
75091;DHT22;63674;48.048;8.306;2023-05-19T09:18:52;13.20;96.60
75091;DHT22;63674;48.048;8.306;2023-05-19T09:21:27;12.80;98.90
75091;DHT22;63674;48.048;8.306;2023-05-19T09:23:57;12.80;98.60
75091;DHT22;63674;48.048;8.306;2023-05-19T09:26:36;12.70;99.90
75091;DHT22;63674;48.048;8.306;2023-05-19T09:29:15;13.00;99.90
75091;DHT22;63674;48.048;8.306;2023-05-19T09:31:47;13.30;99.90
75091;DHT22;63674;48.048;8.306;2023-05-19T09:34:18;13.60;99.90
75091;DHT22;63674;48.048;8.306;2023-05-19T09:36:48;13.60;95.50
75091;DHT22;63674;48.048;8.306;2023-05-19T09:39:19;13.30;94.60
75091;DHT22;63674;48.048;8.306;2023-05-19T09:41:50;13.30;99.80
75091;DHT22;63674;48.048;8.306;2023-05-19T09:44:24;13.30;97.10
75091;DHT22;63674;48.048;8.306;2023-05-19T09:46:56;13.10;99.90
75091;DHT22;63674;48.048;8.306;2023-05-19T09:49:26;13.10;99.90
75091;DHT22;63674;48.048;8.306;2023-05-19T09:51:58;13.00;96.70
75091;DHT22;63674;48.048;8.306;2023-05-19T09:54:29;12.80;97.60
75091;DHT22;63674;48.048;8.306;2023-05-19T09:56:59;12.80;99.90
75091;DHT22;63674;48.048;8.306;2023-05-19T09:59:31;12.90;99.90
75091;DHT22;63674;48.048;8.306;2023-05-19T10:02:00;12.60;99.70
75091;DHT22;63674;48.048;8.306;2023-05-19T10:04:29;12.60;99.90
75091;DHT22;63674;48.048;8.306;2023-05-19T10:06:58;12.60;99.90
75091;DHT22;63674;48.048;8.306;2023-05-19T10:09:32;12.80;99.90
75091;DHT22;63674;48.048;8.306;2023-05-19T10:12:01;13.00;99.90
75091;DHT22;63674;48.048;8.306;2023-05-19T10:14:32;13.00;99.90
75091;DHT22;63674;48.048;8.306;2023-05-19T10:17:01;13.00;99.90
75091;DHT22;63674;48.048;8.306;2023-05-19T10:19:30;13.10;99.90
75091;DHT22;63674;48.048;8.306;2023-05-19T10:21:59;13.10;99.90
75091;DHT22;63674;48.048;8.306;2023-05-19T10:24:27;13.20;99.90
75091;DHT22;63674;48.048;8.306;2023-05-19T10:26:59;13.10;99.90
75091;DHT22;63674;48.048;8.306;2023-05-19T10:29:35;13.10;99.90
75091;DHT22;63674;48.048;8.306;2023-05-19T10:32:09;13.10;99.90
75091;DHT22;63674;48.048;8.306;2023-05-19T10:34:56;13.10;99.90
75091;DHT22;63674;48.048;8.306;2023-05-19T10:37:53;12.90;99.90
75091;DHT22;63674;48.048;8.306;2023-05-19T10:40:28;12.80;99.90
75091;DHT22;63674;48.048;8.306;2023-05-19T10:43:07;12.80;99.90
75091;DHT22;63674;48.048;8.306;2023-05-19T10:45:47;12.70;99.90
75091;DHT22;63674;48.048;8.306;2023-05-19T10:48:19;12.70;99.90
75091;DHT22;63674;48.048;8.306;2023-05-19T10:50:51;12.60;99.90
75091;DHT22;63674;48.048;8.306;2023-05-19T10:53:21;12.60;99.90
75091;DHT22;63674;48.048;8.306;2023-05-19T10:55:50;12.50;99.90
75091;DHT22;63674;48.048;8.306;2023-05-19T10:58:39;12.40;99.90
75091;DHT22;63674;48.048;8.306;2023-05-19T11:01:19;12.50;99.90
75091;DHT22;63674;48.048;8.306;2023-05-19T11:03:51;12.50;99.90
75091;DHT22;63674;48.048;8.306;2023-05-19T11:06:25;12.50;99.90
75091;DHT22;63674;48.048;8.306;2023-05-19T11:08:56;12.50;99.90
75091;DHT22;63674;48.048;8.306;2023-05-19T11:11:44;12.50;99.90
75091;DHT22;63674;48.048;8.306;2023-05-19T11:14:14;12.90;99.90
75091;DHT22;63674;48.048;8.306;2023-05-19T11:16:51;12.90;99.90
75091;DHT22;63674;48.048;8.306;2023-05-19T11:19:25;13.10;99.90
75091;DHT22;63674;48.048;8.306;2023-05-19T11:21:56;13.00;99.90
75091;DHT22;63674;48.048;8.306;2023-05-19T11:24:35;13.10;99.90
75091;DHT22;63674;48.048;8.306;2023-05-19T11:27:33;13.00;99.90
75091;DHT22;63674;48.048;8.306;2023-05-19T11:30:10;13.10;99.90
75091;DHT22;63674;48.048;8.306;2023-05-19T11:32:43;12.80;99.90
75091;DHT22;63674;48.048;8.306;2023-05-19T11:35:15;13.00;99.90
75091;DHT22;63674;48.048;8.306;2023-05-19T11:37:48;13.00;99.90
75091;DHT22;63674;48.048;8.306;2023-05-19T11:40:18;12.80;99.90
75091;DHT22;63674;48.048;8.306;2023-05-19T11:42:48;12.80;99.90
75091;DHT22;63674;48.048;8.306;2023-05-19T11:45:23;13.00;99.90
75091;DHT22;63674;48.048;8.306;2023-05-19T11:47:56;13.20;99.90
75091;DHT22;63674;48.048;8.306;2023-05-19T11:50:30;13.30;99.90
75091;DHT22;63674;48.048;8.306;2023-05-19T11:53:00;13.40;99.90
75091;DHT22;63674;48.048;8.306;2023-05-19T11:55:29;13.50;99.90
75091;DHT22;63674;48.048;8.306;2023-05-19T11:57:59;13.50;99.90
75091;DHT22;63674;48.048;8.306;2023-05-19T12:00:34;13.60;99.90
75091;DHT22;63674;48.048;8.306;2023-05-19T12:03:08;13.80;99.90
75091;DHT22;63674;48.048;8.306;2023-05-19T12:05:41;14.00;99.90
75091;DHT22;63674;48.048;8.306;2023-05-19T12:08:12;14.00;99.90
75091;DHT22;63674;48.048;8.306;2023-05-19T12:10:41;14.00;99.90
75091;DHT22;63674;48.048;8.306;2023-05-19T12:13:09;14.00;99.00
75091;DHT22;63674;48.048;8.306;2023-05-19T12:15:38;14.00;99.90
75091;DHT22;63674;48.048;8.306;2023-05-19T12:18:08;13.60;99.90
75091;DHT22;63674;48.048;8.306;2023-05-19T12:20:37;13.60;99.90
75091;DHT22;63674;48.048;8.306;2023-05-19T12:23:05;13.60;99.90
75091;DHT22;63674;48.048;8.306;2023-05-19T12:25:34;13.60;99.90
75091;DHT22;63674;48.048;8.306;2023-05-19T12:28:04;13.70;99.90
75091;DHT22;63674;48.048;8.306;2023-05-19T12:30:33;13.60;99.90
75091;DHT22;63674;48.048;8.306;2023-05-19T12:33:02;13.60;99.90
75091;DHT22;63674;48.048;8.306;2023-05-19T12:35:32;13.50;99.90
75091;DHT22;63674;48.048;8.306;2023-05-19T12:38:02;13.50;99.90
75091;DHT22;63674;48.048;8.306;2023-05-19T12:40:32;13.40;99.90
75091;DHT22;63674;48.048;8.306;2023-05-19T12:43:02;13.30;99.90
75091;DHT22;63674;48.048;8.306;2023-05-19T12:45:33;13.10;99.90
75091;DHT22;63674;48.048;8.306;2023-05-19T12:48:03;13.00;99.90
75091;DHT22;63674;48.048;8.306;2023-05-19T12:50:36;12.80;99.90
75091;DHT22;63674;48.048;8.306;2023-05-19T12:53:07;12.80;99.90
75091;DHT22;63674;48.048;8.306;2023-05-19T12:55:38;13.00;99.90
75091;DHT22;63674;48.048;8.306;2023-05-19T12:58:09;13.10;99.90
75091;DHT22;63674;48.048;8.306;2023-05-19T13:00:42;13.10;99.90
75091;DHT22;63674;48.048;8.306;2023-05-19T13:03:15;13.00;99.90
75091;DHT22;63674;48.048;8.306;2023-05-19T13:05:48;13.10;99.90
75091;DHT22;63674;48.048;8.306;2023-05-19T13:08:18;13.00;99.90
75091;DHT22;63674;48.048;8.306;2023-05-19T13:10:48;13.00;99.90
75091;DHT22;63674;48.048;8.306;2023-05-19T13:13:17;13.00;99.90
75091;DHT22;63674;48.048;8.306;2023-05-19T13:15:46;12.90;99.90
75091;DHT22;63674;48.048;8.306;2023-05-19T13:18:16;12.80;99.90
75091;DHT22;63674;48.048;8.306;2023-05-19T13:20:46;12.90;99.90
75091;DHT22;63674;48.048;8.306;2023-05-19T13:23:16;13.00;99.90
75091;DHT22;63674;48.048;8.306;2023-05-19T13:25:45;12.90;99.90
75091;DHT22;63674;48.048;8.306;2023-05-19T13:28:13;12.90;99.90
75091;DHT22;63674;48.048;8.306;2023-05-19T13:30:43;12.90;99.90
75091;DHT22;63674;48.048;8.306;2023-05-19T13:33:12;12.90;99.90
75091;DHT22;63674;48.048;8.306;2023-05-19T13:35:40;12.70;99.90
75091;DHT22;63674;48.048;8.306;2023-05-19T13:38:10;12.70;99.90
75091;DHT22;63674;48.048;8.306;2023-05-19T13:40:39;12.50;99.90
75091;DHT22;63674;48.048;8.306;2023-05-19T13:43:07;12.40;99.90
75091;DHT22;63674;48.048;8.306;2023-05-19T13:45:36;12.50;99.90
75091;DHT22;63674;48.048;8.306;2023-05-19T13:48:05;12.60;99.90
75091;DHT22;63674;48.048;8.306;2023-05-19T13:50:34;12.60;99.90
75091;DHT22;63674;48.048;8.306;2023-05-19T13:53:03;12.60;99.90
75091;DHT22;63674;48.048;8.306;2023-05-19T13:55:33;12.80;99.90
75091;DHT22;63674;48.048;8.306;2023-05-19T13:58:01;12.90;99.90
75091;DHT22;63674;48.048;8.306;2023-05-19T14:00:30;12.90;99.90
75091;DHT22;63674;48.048;8.306;2023-05-19T14:02:59;12.90;99.90
75091;DHT22;63674;48.048;8.306;2023-05-19T14:05:28;12.80;99.90
75091;DHT22;63674;48.048;8.306;2023-05-19T14:07:57;12.80;99.90
75091;DHT22;63674;48.048;8.306;2023-05-19T14:10:27;12.90;99.90
75091;DHT22;63674;48.048;8.306;2023-05-19T14:12:56;13.00;99.90
75091;DHT22;63674;48.048;8.306;2023-05-19T14:15:28;13.00;99.90
75091;DHT22;63674;48.048;8.306;2023-05-19T14:18:00;13.00;99.90
75091;DHT22;63674;48.048;8.306;2023-05-19T14:20:31;12.90;99.90
75091;DHT22;63674;48.048;8.306;2023-05-19T14:23:00;12.90;99.90
75091;DHT22;63674;48.048;8.306;2023-05-19T14:25:29;12.70;99.90
75091;DHT22;63674;48.048;8.306;2023-05-19T14:27:59;12.60;99.90
75091;DHT22;63674;48.048;8.306;2023-05-19T14:30:28;12.60;99.90
75091;DHT22;63674;48.048;8.306;2023-05-19T14:32:57;12.50;99.90
75091;DHT22;63674;48.048;8.306;2023-05-19T14:35:26;12.40;99.90
75091;DHT22;63674;48.048;8.306;2023-05-19T14:37:54;12.30;99.90
75091;DHT22;63674;48.048;8.306;2023-05-19T14:40:23;12.20;99.90
75091;DHT22;63674;48.048;8.306;2023-05-19T14:42:52;12.20;99.90
75091;DHT22;63674;48.048;8.306;2023-05-19T14:45:22;12.20;99.90
75091;DHT22;63674;48.048;8.306;2023-05-19T14:47:50;12.20;99.90
75091;DHT22;63674;48.048;8.306;2023-05-19T14:50:19;12.20;99.90
75091;DHT22;63674;48.048;8.306;2023-05-19T14:52:48;12.10;99.90
75091;DHT22;63674;48.048;8.306;2023-05-19T14:55:16;12.10;99.90
75091;DHT22;63674;48.048;8.306;2023-05-19T14:57:45;12.10;99.90
75091;DHT22;63674;48.048;8.306;2023-05-19T15:00:14;12.00;99.90
75091;DHT22;63674;48.048;8.306;2023-05-19T15:02:44;12.00;99.90
75091;DHT22;63674;48.048;8.306;2023-05-19T15:05:12;12.00;99.90
75091;DHT22;63674;48.048;8.306;2023-05-19T15:07:42;12.00;99.90
75091;DHT22;63674;48.048;8.306;2023-05-19T15:10:10;11.90;99.90
75091;DHT22;63674;48.048;8.306;2023-05-19T15:12:39;11.80;99.90
75091;DHT22;63674;48.048;8.306;2023-05-19T15:15:08;11.80;99.90
75091;DHT22;63674;48.048;8.306;2023-05-19T15:17:38;11.90;99.90
75091;DHT22;63674;48.048;8.306;2023-05-19T15:20:09;11.90;99.90
75091;DHT22;63674;48.048;8.306;2023-05-19T15:22:38;11.90;99.90
75091;DHT22;63674;48.048;8.306;2023-05-19T15:25:08;11.90;99.90
75091;DHT22;63674;48.048;8.306;2023-05-19T15:27:37;11.90;99.90
75091;DHT22;63674;48.048;8.306;2023-05-19T15:30:06;11.80;99.90
75091;DHT22;63674;48.048;8.306;2023-05-19T15:32:35;11.80;99.90
75091;DHT22;63674;48.048;8.306;2023-05-19T15:35:05;11.80;99.90
75091;DHT22;63674;48.048;8.306;2023-05-19T15:37:36;11.80;99.90
75091;DHT22;63674;48.048;8.306;2023-05-19T15:40:06;11.80;99.90
75091;DHT22;63674;48.048;8.306;2023-05-19T15:42:35;11.90;99.90
75091;DHT22;63674;48.048;8.306;2023-05-19T15:45:05;11.90;99.90
75091;DHT22;63674;48.048;8.306;2023-05-19T15:47:35;11.90;99.90
75091;DHT22;63674;48.048;8.306;2023-05-19T15:50:06;11.90;99.90
75091;DHT22;63674;48.048;8.306;2023-05-19T15:52:37;11.90;99.90
75091;DHT22;63674;48.048;8.306;2023-05-19T15:55:06;11.90;99.90
75091;DHT22;63674;48.048;8.306;2023-05-19T15:57:36;11.80;99.90
75091;DHT22;63674;48.048;8.306;2023-05-19T16:00:06;11.80;99.90
75091;DHT22;63674;48.048;8.306;2023-05-19T16:02:35;11.80;99.90